Terminal Aerodrome Forecast
Issued by NWS

Home | Current Version | Previous Version | Text Only | Print | Product List | Glossary On
Versions: 1 2 3 4 5 6 7 8 9 10 11 12 13
000
FTUS46 KPDT 231138
TAFALW
TAF
KALW 231138Z 2312/2412 18007KT P6SM FEW150 SCT200
     FM231500 22007KT P6SM FEW130 SCT200
     FM231800 32007KT P6SM SCT120
     FM240400 15007KT P6SM SCT070=

USA.gov is the U.S. government's official web portal to all federal, state and local government web resources and services.